Aidenried, Germany

12:18 PM CEST die 25o June, anno 2017 (GMT +0200)
Brunnwiesstraße | | Change Station

Elev 1781 ft 47.93 °N, 11.15 °E | Updated 6 minutes ago

Pluvia
Pluvia
64.8 °F
Feels Like 64.8 °F
N
0.6
Ventus Variabilis Ventus from Inter Austrum et Eurum
Gusts 1.9 mph

Hodie
High -- | Low -- °F
--% Chance of Precip.
Yesterday
High -- | Low -- °F
Precip. -- in
Pressio 30.06 in
Visibilitas 2.5 milia passuum
Clouds Nubes Dispersae 600 ft
Plerumque Nubila 1000 ft
Plerumque Nubila 4500 ft
Frigus in quo Ros apparet 61 °F
Umor 88%
Rainfall 0.35 in
Snow Depth Not available.
5:17 AM 9:18 PM
Waxing Crescent, 3% visible
METAR EDMO 250950Z VRB03KT 4000 RA SCT006 BKN010 BKN045 16/14 Q1018
Pressio 30.06 in
Visibilitas 2.5 milia passuum
Clouds Nubes Dispersae 600 ft
Plerumque Nubila 1000 ft
Plerumque Nubila 4500 ft
Frigus in quo Ros apparet 61 °F
Umor 88%
Rainfall 0.35 in
Snow Depth Not available.
5:17 AM 9:18 PM
Waxing Crescent, 3% visible
METAR EDMO 250950Z VRB03KT 4000 RA SCT006 BKN010 BKN045 16/14 Q1018

Get Severe Weather Alerts

Thanks for signing up!

Be on the lookout for a verification email in your inbox.

You'll start receiving the daily forecast at 6 AM.

×

10-Day Weather Forecast

×

Almanac

Astronomy

Jun. 25, 2017 Rise Set
Actual Time
Civil Twilight
Nautical Twilight
Astronomical Twilight
Moon
Length Of Visible Light
Length of Day
Tomorrow will be .
, % of the Moon is Illuminated

Today's Extremes

Country Highs Country Lows

Community

WunderPhotos

Category 6

Welcome to Category 6. This is the collective home for Weather Underground's featured writeups by Dr. Jeff Masters (right), Bob Henson (left), Chris Burt, and other regular contributors.

Nearby

Air Quality

  Air Quality AQ Index Pollutant
Not available.

Snow Depth

Station Depth Elevation

Earthquake Activity

City Distance Mag. Time & Date
Minimum magnitude displayed is 2.5.

Coastal Water Temperatures

Locus Calor

Stations

Nearby Weather Stations

Station Location Temp Frigus Venti Frigus in quo Ros apparet Umor Ventus Precip. Elev Renovata Type